sensor_id;sensor_type;location;lat;lon;timestamp;P1;durP1;ratioP1;P2;durP2;ratioP2
57313;SDS011;53202;50.976;18.216;2023-05-13T00:07:31;7.50;;;6.80;;
57313;SDS011;53202;50.976;18.216;2023-05-13T00:17:14;19.80;;;5.30;;
57313;SDS011;53202;50.976;18.216;2023-05-13T00:26:58;6.70;;;5.20;;
57313;SDS011;53202;50.976;18.216;2023-05-13T00:36:43;5.90;;;5.00;;
57313;SDS011;53202;50.976;18.216;2023-05-13T00:46:31;7.00;;;5.80;;
57313;SDS011;53202;50.976;18.216;2023-05-13T00:56:19;9.90;;;4.70;;
57313;SDS011;53202;50.976;18.216;2023-05-13T01:16:52;8.40;;;5.30;;
57313;SDS011;53202;50.976;18.216;2023-05-13T01:26:42;9.00;;;5.20;;
57313;SDS011;53202;50.976;18.216;2023-05-13T01:36:26;4.40;;;3.30;;
57313;SDS011;53202;50.976;18.216;2023-05-13T01:46:11;49.20;;;10.00;;
57313;SDS011;53202;50.976;18.216;2023-05-13T01:53:29;12.40;;;7.80;;
57313;SDS011;53202;50.976;18.216;2023-05-13T01:55:55;15.70;;;6.70;;
57313;SDS011;53202;50.976;18.216;2023-05-13T02:05:39;12.10;;;7.20;;
57313;SDS011;53202;50.976;18.216;2023-05-13T02:15:22;10.40;;;7.00;;
57313;SDS011;53202;50.976;18.216;2023-05-13T02:25:06;7.60;;;4.20;;
57313;SDS011;53202;50.976;18.216;2023-05-13T02:34:50;16.30;;;7.40;;
57313;SDS011;53202;50.976;18.216;2023-05-13T02:44:33;7.60;;;5.30;;
57313;SDS011;53202;50.976;18.216;2023-05-13T02:54:17;8.20;;;5.50;;
57313;SDS011;53202;50.976;18.216;2023-05-13T03:04:01;14.20;;;5.10;;
57313;SDS011;53202;50.976;18.216;2023-05-13T03:13:45;10.60;;;4.30;;
57313;SDS011;53202;50.976;18.216;2023-05-13T03:23:29;7.00;;;4.30;;
57313;SDS011;53202;50.976;18.216;2023-05-13T03:33:13;7.10;;;5.70;;
57313;SDS011;53202;50.976;18.216;2023-05-13T03:42:58;9.80;;;5.80;;
57313;SDS011;53202;50.976;18.216;2023-05-13T03:52:41;6.50;;;5.90;;
57313;SDS011;53202;50.976;18.216;2023-05-13T04:02:25;12.20;;;5.20;;
57313;SDS011;53202;50.976;18.216;2023-05-13T04:12:08;12.00;;;6.10;;
57313;SDS011;53202;50.976;18.216;2023-05-13T04:21:53;12.70;;;7.30;;
57313;SDS011;53202;50.976;18.216;2023-05-13T04:31:36;18.70;;;5.90;;
57313;SDS011;53202;50.976;18.216;2023-05-13T04:41:22;5.80;;;4.30;;
57313;SDS011;53202;50.976;18.216;2023-05-13T04:51:07;10.20;;;5.40;;
57313;SDS011;53202;50.976;18.216;2023-05-13T05:00:52;7.50;;;5.90;;
57313;SDS011;53202;50.976;18.216;2023-05-13T05:10:37;23.00;;;4.20;;
57313;SDS011;53202;50.976;18.216;2023-05-13T05:20:21;4.40;;;3.50;;
57313;SDS011;53202;50.976;18.216;2023-05-13T05:30:07;7.80;;;3.50;;
57313;SDS011;53202;50.976;18.216;2023-05-13T05:39:53;5.50;;;4.00;;
57313;SDS011;53202;50.976;18.216;2023-05-13T05:49:37;5.50;;;4.60;;
57313;SDS011;53202;50.976;18.216;2023-05-13T05:59:21;32.40;;;2.90;;
57313;SDS011;53202;50.976;18.216;2023-05-13T06:09:05;8.20;;;4.80;;
57313;SDS011;53202;50.976;18.216;2023-05-13T06:18:50;5.60;;;4.90;;
57313;SDS011;53202;50.976;18.216;2023-05-13T06:28:33;5.30;;;3.90;;
57313;SDS011;53202;50.976;18.216;2023-05-13T06:38:17;6.50;;;2.30;;
57313;SDS011;53202;50.976;18.216;2023-05-13T06:48:04;50.00;;;4.80;;
57313;SDS011;53202;50.976;18.216;2023-05-13T06:57:48;14.60;;;4.40;;
57313;SDS011;53202;50.976;18.216;2023-05-13T07:07:33;8.20;;;4.00;;
57313;SDS011;53202;50.976;18.216;2023-05-13T07:17:17;1.10;;;1.00;;
57313;SDS011;53202;50.976;18.216;2023-05-13T07:27:01;9.60;;;3.10;;
57313;SDS011;53202;50.976;18.216;2023-05-13T07:36:48;5.30;;;3.80;;
57313;SDS011;53202;50.976;18.216;2023-05-13T07:46:36;35.60;;;4.40;;
57313;SDS011;53202;50.976;18.216;2023-05-13T07:56:22;20.90;;;7.70;;
57313;SDS011;53202;50.976;18.216;2023-05-13T08:06:08;2.60;;;1.80;;
57313;SDS011;53202;50.976;18.216;2023-05-13T08:15:52;8.80;;;3.60;;
57313;SDS011;53202;50.976;18.216;2023-05-13T08:25:36;2.60;;;1.90;;
57313;SDS011;53202;50.976;18.216;2023-05-13T08:35:20;2.10;;;2.00;;
57313;SDS011;53202;50.976;18.216;2023-05-13T08:45:06;3.50;;;2.60;;
57313;SDS011;53202;50.976;18.216;2023-05-13T08:55:04;3.50;;;2.30;;
57313;SDS011;53202;50.976;18.216;2023-05-13T09:04:52;3.20;;;1.30;;
57313;SDS011;53202;50.976;18.216;2023-05-13T09:14:36;44.30;;;5.60;;
57313;SDS011;53202;50.976;18.216;2023-05-13T09:24:22;9.00;;;1.00;;
57313;SDS011;53202;50.976;18.216;2023-05-13T09:34:11;1.40;;;0.80;;
57313;SDS011;53202;50.976;18.216;2023-05-13T09:43:56;3.60;;;1.20;;
57313;SDS011;53202;50.976;18.216;2023-05-13T09:54:02;5.70;;;3.50;;
57313;SDS011;53202;50.976;18.216;2023-05-13T10:03:49;4.30;;;1.20;;
57313;SDS011;53202;50.976;18.216;2023-05-13T10:06:15;18.70;;;2.00;;
57313;SDS011;53202;50.976;18.216;2023-05-13T10:16:01;1.80;;;1.00;;
57313;SDS011;53202;50.976;18.216;2023-05-13T10:25:47;9.00;;;3.20;;
57313;SDS011;53202;50.976;18.216;2023-05-13T10:35:33;33.30;;;3.40;;
57313;SDS011;53202;50.976;18.216;2023-05-13T10:45:36;2.10;;;1.70;;
57313;SDS011;53202;50.976;18.216;2023-05-13T11:16:19;40.80;;;1.60;;
57313;SDS011;53202;50.976;18.216;2023-05-13T11:26:22;1.50;;;1.40;;
57313;SDS011;53202;50.976;18.216;2023-05-13T11:36:27;1.40;;;0.90;;
57313;SDS011;53202;50.976;18.216;2023-05-13T11:46:18;2.20;;;1.80;;
57313;SDS011;53202;50.976;18.216;2023-05-13T11:56:08;8.30;;;2.50;;
57313;SDS011;53202;50.976;18.216;2023-05-13T12:06:08;6.70;;;1.80;;
57313;SDS011;53202;50.976;18.216;2023-05-13T12:15:51;3.40;;;1.40;;
57313;SDS011;53202;50.976;18.216;2023-05-13T12:25:37;0.70;;;0.70;;
57313;SDS011;53202;50.976;18.216;2023-05-13T12:35:38;0.80;;;0.60;;
57313;SDS011;53202;50.976;18.216;2023-05-13T12:38:04;5.60;;;1.80;;
57313;SDS011;53202;50.976;18.216;2023-05-13T12:47:54;1.60;;;1.40;;
57313;SDS011;53202;50.976;18.216;2023-05-13T12:57:40;1.00;;;0.50;;
57313;SDS011;53202;50.976;18.216;2023-05-13T13:07:28;6.50;;;3.00;;
57313;SDS011;53202;50.976;18.216;2023-05-13T13:17:13;2.00;;;1.50;;
57313;SDS011;53202;50.976;18.216;2023-05-13T13:19:39;12.90;;;3.30;;
57313;SDS011;53202;50.976;18.216;2023-05-13T13:29:22;1.60;;;1.40;;
57313;SDS011;53202;50.976;18.216;2023-05-13T13:39:07;0.70;;;0.60;;
57313;SDS011;53202;50.976;18.216;2023-05-13T13:48:51;1.10;;;0.90;;
57313;SDS011;53202;50.976;18.216;2023-05-13T13:58:35;5.70;;;1.90;;
57313;SDS011;53202;50.976;18.216;2023-05-13T14:08:19;1.30;;;0.70;;
57313;SDS011;53202;50.976;18.216;2023-05-13T14:18:04;1.70;;;1.60;;
57313;SDS011;53202;50.976;18.216;2023-05-13T14:27:50;10.30;;;1.60;;
57313;SDS011;53202;50.976;18.216;2023-05-13T14:37:38;4.50;;;2.50;;
57313;SDS011;53202;50.976;18.216;2023-05-13T14:47:23;2.40;;;1.90;;
57313;SDS011;53202;50.976;18.216;2023-05-13T14:57:06;1.80;;;1.70;;
57313;SDS011;53202;50.976;18.216;2023-05-13T15:06:53;2.00;;;1.90;;
57313;SDS011;53202;50.976;18.216;2023-05-13T15:14:12;7.30;;;2.10;;
57313;SDS011;53202;50.976;18.216;2023-05-13T15:23:57;12.80;;;2.20;;
57313;SDS011;53202;50.976;18.216;2023-05-13T15:33:40;2.30;;;1.80;;
57313;SDS011;53202;50.976;18.216;2023-05-13T15:43:26;3.00;;;2.80;;
57313;SDS011;53202;50.976;18.216;2023-05-13T15:53:10;19.10;;;1.60;;
57313;SDS011;53202;50.976;18.216;2023-05-13T16:02:56;1.10;;;0.80;;
57313;SDS011;53202;50.976;18.216;2023-05-13T16:12:39;2.00;;;1.70;;
57313;SDS011;53202;50.976;18.216;2023-05-13T16:22:33;6.50;;;2.90;;
57313;SDS011;53202;50.976;18.216;2023-05-13T16:32:21;1.70;;;1.60;;
57313;SDS011;53202;50.976;18.216;2023-05-13T16:42:05;3.30;;;1.60;;
57313;SDS011;53202;50.976;18.216;2023-05-13T16:51:49;2.50;;;1.60;;
57313;SDS011;53202;50.976;18.216;2023-05-13T17:01:34;3.50;;;1.40;;
57313;SDS011;53202;50.976;18.216;2023-05-13T17:11:19;2.30;;;1.50;;
57313;SDS011;53202;50.976;18.216;2023-05-13T17:21:02;9.40;;;3.70;;
57313;SDS011;53202;50.976;18.216;2023-05-13T17:30:48;17.30;;;2.70;;
57313;SDS011;53202;50.976;18.216;2023-05-13T17:40:32;1.70;;;1.60;;
57313;SDS011;53202;50.976;18.216;2023-05-13T17:50:19;8.20;;;3.30;;
57313;SDS011;53202;50.976;18.216;2023-05-13T18:00:03;1.10;;;1.00;;
57313;SDS011;53202;50.976;18.216;2023-05-13T18:09:50;1.70;;;1.20;;
57313;SDS011;53202;50.976;18.216;2023-05-13T18:19:33;1.50;;;1.30;;
57313;SDS011;53202;50.976;18.216;2023-05-13T18:29:18;1.80;;;1.00;;
57313;SDS011;53202;50.976;18.216;2023-05-13T18:39:01;4.00;;;2.40;;
57313;SDS011;53202;50.976;18.216;2023-05-13T18:48:45;0.60;;;0.60;;
57313;SDS011;53202;50.976;18.216;2023-05-13T19:05:46;5.20;;;3.10;;
57313;SDS011;53202;50.976;18.216;2023-05-13T19:15:31;13.50;;;7.50;;
57313;SDS011;53202;50.976;18.216;2023-05-13T19:17:57;14.10;;;6.80;;
57313;SDS011;53202;50.976;18.216;2023-05-13T19:27:43;12.70;;;5.80;;
57313;SDS011;53202;50.976;18.216;2023-05-13T19:37:29;38.20;;;20.10;;
57313;SDS011;53202;50.976;18.216;2023-05-13T19:47:12;28.40;;;9.50;;
57313;SDS011;53202;50.976;18.216;2023-05-13T19:56:57;7.30;;;5.90;;
57313;SDS011;53202;50.976;18.216;2023-05-13T20:06:41;17.00;;;4.80;;
57313;SDS011;53202;50.976;18.216;2023-05-13T20:16:26;24.30;;;9.50;;
57313;SDS011;53202;50.976;18.216;2023-05-13T20:26:10;47.60;;;20.40;;
57313;SDS011;53202;50.976;18.216;2023-05-13T20:35:54;50.50;;;23.50;;
57313;SDS011;53202;50.976;18.216;2023-05-13T20:45:41;31.00;;;15.20;;
57313;SDS011;53202;50.976;18.216;2023-05-13T20:55:26;11.40;;;8.00;;
57313;SDS011;53202;50.976;18.216;2023-05-13T21:05:10;13.90;;;8.80;;
57313;SDS011;53202;50.976;18.216;2023-05-13T21:14:55;11.90;;;9.00;;
57313;SDS011;53202;50.976;18.216;2023-05-13T21:24:42;5.80;;;5.20;;
57313;SDS011;53202;50.976;18.216;2023-05-13T21:34:25;5.80;;;4.40;;
57313;SDS011;53202;50.976;18.216;2023-05-13T21:44:09;7.10;;;5.20;;
57313;SDS011;53202;50.976;18.216;2023-05-13T21:53:54;5.30;;;4.50;;
57313;SDS011;53202;50.976;18.216;2023-05-13T22:03:39;9.70;;;3.90;;
57313;SDS011;53202;50.976;18.216;2023-05-13T22:13:25;5.20;;;4.10;;
57313;SDS011;53202;50.976;18.216;2023-05-13T22:23:10;4.20;;;3.20;;
57313;SDS011;53202;50.976;18.216;2023-05-13T22:32:53;11.00;;;7.20;;
57313;SDS011;53202;50.976;18.216;2023-05-13T22:42:40;8.50;;;6.60;;
57313;SDS011;53202;50.976;18.216;2023-05-13T22:52:25;7.50;;;4.90;;
57313;SDS011;53202;50.976;18.216;2023-05-13T23:02:08;2.10;;;1.50;;
57313;SDS011;53202;50.976;18.216;2023-05-13T23:11:52;7.30;;;6.20;;
57313;SDS011;53202;50.976;18.216;2023-05-13T23:21:35;15.10;;;7.40;;
57313;SDS011;53202;50.976;18.216;2023-05-13T23:31:19;14.30;;;8.50;;
57313;SDS011;53202;50.976;18.216;2023-05-13T23:41:02;15.20;;;9.70;;
57313;SDS011;53202;50.976;18.216;2023-05-13T23:50:47;12.50;;;7.70;;
